Terminal Aerodrome Forecast
Issued by NWS

Home | Current Version | Previous Version | Text Only | Print | Product List | Glossary On
Versions: 1 2 3 4 5 6 7 8 9 10 11 12 13 14
000
FTAK31 PAJN 010500
TAFAJN
TAF
PAJN 010521Z 0106/0206 VRB03KT P6SM SKC
     FM010800 00000KT P6SM VCFG SKC
      TEMPO 0110/0114 1/2SM FG BKN002
     FM011400 VRB03KT P6SM SKC
     FM011800 24007KT P6SM SKC
     FM020400 VRB04KT P6SM SKC=

USA.gov is the U.S. government's official web portal to all federal, state and local government web resources and services.